createdAt,value
2018-10-03T00:02:23.794Z,8.13
2018-10-03T00:04:51.884Z,8.40
2018-10-03T00:07:20.649Z,8.10
2018-10-03T00:09:49.419Z,8.07
2018-10-03T00:12:17.585Z,7.67
2018-10-03T00:14:45.695Z,6.97
2018-10-03T00:17:13.763Z,6.90
2018-10-03T00:19:41.891Z,7.03
2018-10-03T00:22:10.058Z,6.60
2018-10-03T00:24:38.804Z,6.30
2018-10-03T00:27:06.879Z,7.00
2018-10-03T00:29:34.963Z,6.03
2018-10-03T00:32:03.064Z,6.30
2018-10-03T00:34:31.160Z,7.10
2018-10-03T00:36:59.545Z,6.60
2018-10-03T00:39:27.676Z,6.23
2018-10-03T00:41:55.753Z,5.90
2018-10-03T00:44:23.848Z,6.30
2018-10-03T00:46:51.933Z,6.28
2018-10-03T00:49:20.087Z,6.17
2018-10-03T00:51:49.383Z,6.12
2018-10-03T00:54:17.515Z,6.63
2018-10-03T00:56:45.575Z,6.57
2018-10-03T00:59:13.665Z,6.70
2018-10-03T01:01:41.736Z,7.60
2018-10-03T01:04:09.861Z,7.80
2018-10-03T01:06:37.994Z,7.67
2018-10-03T01:09:06.204Z,7.50
2018-10-03T01:11:34.312Z,8.43
2018-10-03T01:14:03.320Z,8.93
2018-10-03T01:16:31.709Z,8.47
2018-10-03T01:19:00.224Z,8.27
2018-10-03T01:21:28.561Z,9.30
2018-10-03T01:23:56.853Z,8.40
2018-10-03T01:26:24.911Z,8.95
2018-10-03T01:28:53.012Z,9.67
2018-10-03T01:31:21.127Z,8.90
2018-10-03T01:33:49.744Z,9.20
2018-10-03T01:36:17.939Z,8.93
2018-10-03T01:38:46.049Z,9.57
2018-10-03T01:41:14.151Z,9.40
2018-10-03T01:43:42.544Z,8.90
2018-10-03T01:46:10.722Z,9.20
2018-10-03T01:48:39.084Z,9.05
2018-10-03T01:51:07.190Z,8.53
2018-10-03T01:53:36.111Z,9.30
2018-10-03T01:56:04.331Z,9.83
2018-10-03T01:58:32.413Z,9.60
2018-10-03T02:01:01.088Z,10.73
2018-10-03T02:03:29.746Z,10.50
2018-10-03T02:05:58.403Z,10.80
2018-10-03T02:08:26.566Z,11.00
2018-10-03T02:10:54.664Z,10.90
2018-10-03T02:13:22.831Z,10.97
2018-10-03T02:15:51.171Z,10.63
2018-10-03T02:18:19.636Z,11.53
2018-10-03T02:20:48.131Z,10.70
2018-10-03T02:23:16.215Z,10.63
2018-10-03T02:25:44.328Z,10.87
2018-10-03T02:28:12.443Z,11.30
2018-10-03T02:30:40.609Z,11.87
2018-10-03T02:33:09.004Z,11.70
2018-10-03T02:35:37.130Z,11.85
2018-10-03T02:38:06.481Z,10.87
2018-10-03T02:40:34.557Z,12.10
2018-10-03T02:43:02.639Z,11.93
2018-10-03T02:45:30.807Z,12.53
2018-10-03T02:47:58.971Z,12.23
2018-10-03T02:50:27.367Z,11.97
2018-10-03T02:52:55.447Z,12.03
2018-10-03T02:55:23.573Z,11.65
2018-10-03T02:57:51.667Z,11.00
2018-10-03T03:00:21.635Z,11.80
2018-10-03T03:02:49.835Z,11.97
2018-10-03T03:05:18.055Z,11.33
2018-10-03T03:07:46.169Z,11.63
2018-10-03T03:10:14.251Z,11.83
2018-10-03T03:12:42.332Z,11.28
2018-10-03T03:15:11.023Z,12.00
2018-10-03T03:17:39.308Z,11.27
2018-10-03T03:20:07.916Z,11.33
2018-10-03T03:22:37.306Z,10.93
2018-10-03T03:25:05.653Z,11.13
2018-10-03T03:27:33.750Z,10.17
2018-10-03T03:30:01.918Z,9.30
2018-10-03T03:32:30.052Z,9.80
2018-10-03T03:34:58.397Z,10.68
2018-10-03T03:37:26.497Z,10.50
2018-10-03T03:39:54.621Z,11.60
2018-10-03T03:42:22.703Z,11.13
2018-10-03T03:44:51.091Z,11.73
2018-10-03T03:47:19.379Z,11.70
2018-10-03T03:49:47.475Z,11.37
2018-10-03T03:52:15.582Z,11.43
2018-10-03T03:54:43.663Z,11.40
2018-10-03T03:57:11.760Z,10.97
2018-10-03T03:59:40.212Z,11.40
2018-10-03T04:02:08.767Z,11.33
2018-10-03T04:04:37.475Z,10.30
2018-10-03T04:07:05.575Z,11.13
2018-10-03T04:09:33.663Z,11.30
2018-10-03T04:12:01.736Z,10.93
2018-10-03T04:14:30.732Z,10.50
2018-10-03T04:16:58.847Z,10.23
2018-10-03T04:19:26.956Z,10.30
2018-10-03T04:21:55.046Z,10.37
2018-10-03T04:24:23.157Z,10.43
2018-10-03T04:26:51.371Z,10.40
2018-10-03T04:29:20.801Z,9.43
2018-10-03T04:31:49.544Z,10.10
2018-10-03T04:34:17.895Z,9.50
2018-10-03T04:36:45.971Z,8.83
2018-10-03T04:39:14.112Z,9.00
2018-10-03T04:41:42.264Z,9.83
2018-10-03T04:44:11.147Z,9.80
2018-10-03T04:46:39.834Z,10.07
2018-10-03T04:49:08.458Z,11.00
2018-10-03T04:51:36.494Z,11.10
2018-10-03T04:54:04.584Z,10.37
2018-10-03T04:56:32.676Z,10.67
2018-10-03T04:59:00.923Z,10.48
2018-10-03T05:01:29.139Z,10.17
2018-10-03T05:03:57.245Z,12.23
2018-10-03T05:06:25.359Z,11.50
2018-10-03T05:08:54.342Z,11.45
2018-10-03T05:11:22.467Z,10.50
2018-10-03T05:13:51.191Z,11.10
2018-10-03T05:16:20.298Z,11.00
2018-10-03T05:18:49.397Z,11.80
2018-10-03T05:21:17.532Z,11.38
2018-10-03T05:23:45.657Z,11.97
2018-10-03T05:26:13.756Z,10.60
2018-10-03T05:28:41.893Z,11.83
2018-10-03T05:31:10.584Z,11.65
2018-10-03T05:33:38.794Z,11.27
2018-10-03T05:36:06.875Z,12.13
2018-10-03T05:38:35.034Z,11.97
2018-10-03T05:41:03.136Z,11.63
2018-10-03T05:43:32.276Z,11.87
2018-10-03T05:46:00.556Z,13.07
2018-10-03T05:48:28.905Z,12.20
2018-10-03T05:50:56.934Z,9.83
2018-10-03T05:53:25.144Z,10.53
2018-10-03T05:55:53.255Z,10.50
2018-10-03T05:58:21.418Z,11.47
2018-10-03T06:00:49.766Z,11.83
2018-10-03T06:03:17.929Z,10.80
2018-10-03T06:05:46.038Z,10.93
2018-10-03T06:08:14.151Z,10.60
2018-10-03T06:10:42.284Z,9.73
2018-10-03T06:13:10.893Z,8.97
2018-10-03T06:15:40.695Z,8.90
2018-10-03T06:18:09.132Z,7.90
2018-10-03T06:20:37.390Z,8.37
2018-10-03T06:23:05.468Z,6.93
2018-10-03T06:25:33.536Z,6.70
2018-10-03T06:28:01.827Z,15.58
2018-10-03T06:30:31.091Z,11.03
2018-10-03T06:32:59.554Z,12.80
2018-10-03T06:35:27.764Z,11.87
2018-10-03T06:37:55.907Z,11.03
2018-10-03T06:40:24.064Z,9.30
2018-10-03T06:42:52.628Z,9.10
2018-10-03T06:45:21.456Z,7.80
2018-10-03T06:47:49.634Z,6.97
2018-10-03T06:50:17.814Z,6.67
2018-10-03T06:52:45.884Z,5.37
2018-10-03T06:55:13.982Z,5.90
2018-10-03T06:57:42.591Z,5.87
2018-10-03T07:00:11.257Z,5.33
2018-10-03T07:02:40.373Z,5.03
2018-10-03T07:05:08.826Z,4.83
2018-10-03T07:07:36.907Z,4.67
2018-10-03T07:10:05.216Z,4.73
2018-10-03T07:12:33.311Z,5.08
2018-10-03T07:15:01.468Z,4.83
2018-10-03T07:17:29.824Z,4.70
2018-10-03T07:19:58.044Z,4.37
2018-10-03T07:22:26.071Z,4.13
2018-10-03T07:24:54.188Z,4.30
2018-10-03T07:27:22.272Z,4.27
2018-10-03T07:29:51.969Z,4.17
2018-10-03T07:32:23.215Z,4.17
2018-10-03T07:34:51.288Z,4.10
2018-10-03T07:37:20.434Z,3.80
2018-10-03T07:39:49.815Z,3.67
2018-10-03T07:42:18.145Z,3.30
2018-10-03T07:44:46.218Z,3.13
2018-10-03T07:47:14.311Z,2.90
2018-10-03T07:49:43.388Z,2.60
2018-10-03T07:52:11.611Z,2.30
2018-10-03T07:54:39.756Z,2.60
2018-10-03T07:57:08.855Z,2.77
2018-10-03T07:59:42.701Z,2.53
2018-10-03T08:02:10.952Z,2.17
2018-10-03T08:04:39.065Z,3.00
2018-10-03T08:07:07.283Z,3.30
2018-10-03T08:09:35.374Z,2.37
2018-10-03T08:12:03.496Z,2.27
2018-10-03T08:14:32.221Z,2.67
2018-10-03T08:17:06.837Z,3.00
2018-10-03T08:19:35.466Z,2.50
2018-10-03T08:22:06.759Z,3.00
2018-10-03T08:24:36.567Z,2.85
2018-10-03T08:27:07.225Z,2.50
2018-10-03T08:29:43.259Z,2.87
2018-10-03T08:32:13.543Z,3.13
2018-10-03T08:34:43.653Z,2.60
2018-10-03T08:37:14.032Z,3.07
2018-10-03T08:39:43.869Z,2.97
2018-10-03T08:42:22.505Z,2.70
2018-10-03T08:44:55.465Z,5.03
2018-10-03T08:47:26.564Z,4.53
2018-10-03T08:49:56.516Z,3.10
2018-10-03T08:52:28.530Z,2.97
2018-10-03T08:54:58.769Z,2.60
2018-10-03T08:57:27.760Z,2.90
2018-10-03T09:00:02.509Z,2.85
2018-10-03T09:02:31.449Z,3.17
2018-10-03T09:05:00.110Z,2.60
2018-10-03T09:07:28.207Z,3.30
2018-10-03T09:09:56.671Z,2.30
2018-10-03T09:12:24.747Z,2.80
2018-10-03T09:14:53.227Z,2.33
2018-10-03T09:17:21.879Z,3.17
2018-10-03T09:19:50.052Z,3.20
2018-10-03T09:22:18.163Z,2.50
2018-10-03T09:24:46.231Z,2.80
2018-10-03T09:27:15.041Z,2.43
2018-10-03T09:29:44.093Z,2.50
2018-10-03T09:32:14.003Z,2.57
2018-10-03T09:34:42.678Z,2.77
2018-10-03T09:37:11.329Z,3.93
2018-10-03T09:39:40.068Z,2.93
2018-10-03T09:42:11.711Z,3.20
2018-10-03T09:44:42.060Z,2.67
2018-10-03T09:47:10.194Z,2.80
2018-10-03T09:49:38.316Z,2.80
2018-10-03T09:52:06.908Z,3.10
2018-10-03T09:54:36.939Z,2.60
2018-10-03T09:57:06.646Z,2.73
2018-10-03T09:59:38.943Z,2.90
2018-10-03T10:02:09.020Z,2.70
2018-10-03T10:04:38.695Z,2.97
2018-10-03T10:07:13.439Z,2.90
2018-10-03T10:09:42.845Z,2.80
2018-10-03T10:12:13.243Z,3.10
2018-10-03T10:14:45.144Z,2.80
2018-10-03T10:17:14.868Z,2.60
2018-10-03T10:22:46.924Z,6.00
2018-10-03T10:25:16.476Z,3.20
2018-10-03T10:27:49.637Z,3.10
2018-10-03T10:30:19.984Z,3.17
2018-10-03T10:32:51.214Z,3.13
2018-10-03T10:35:21.127Z,3.20
2018-10-03T10:37:56.625Z,3.15
2018-10-03T10:40:28.960Z,3.10
2018-10-03T10:42:59.366Z,3.20
2018-10-03T10:45:27.461Z,2.77
2018-10-03T10:47:57.161Z,3.20
2018-10-03T10:50:26.311Z,2.90
2018-10-03T10:52:55.081Z,3.83
2018-10-03T10:55:24.482Z,2.92
2018-10-03T10:57:53.791Z,2.87
2018-10-03T11:00:25.077Z,3.10
2018-10-03T11:03:00.879Z,2.90
2018-10-03T11:05:30.076Z,2.53
2018-10-03T11:08:02.642Z,2.80
2018-10-03T11:10:30.801Z,2.60
2018-10-03T11:12:59.601Z,2.97
2018-10-03T11:15:28.759Z,2.57
2018-10-03T11:17:57.990Z,2.60
2018-10-03T11:20:27.557Z,2.85
2018-10-03T11:22:57.231Z,2.73
2018-10-03T11:25:26.102Z,4.07
2018-10-03T11:27:54.205Z,8.63
2018-10-03T11:33:14.916Z,2.93
2018-10-03T11:35:43.024Z,3.07
2018-10-03T11:38:11.247Z,3.53
2018-10-03T11:40:39.424Z,3.45
2018-10-03T11:43:07.555Z,3.50
2018-10-03T11:45:37.144Z,3.52
2018-10-03T11:48:05.258Z,3.73
2018-10-03T11:50:33.347Z,3.10
2018-10-03T11:53:01.496Z,2.97
2018-10-03T11:55:29.707Z,3.70
2018-10-03T11:57:57.796Z,3.67
2018-10-03T12:00:25.908Z,3.80
2018-10-03T12:02:55.441Z,3.45
2018-10-03T12:05:23.440Z,3.20
2018-10-03T12:07:51.628Z,3.50
2018-10-03T12:10:20.324Z,3.27
2018-10-03T12:12:48.466Z,3.20
2018-10-03T12:15:17.331Z,3.15
2018-10-03T12:17:47.748Z,9.37
2018-10-03T12:20:17.430Z,3.45
2018-10-03T12:22:49.368Z,3.13
2018-10-03T12:25:18.340Z,3.02
2018-10-03T12:27:48.224Z,3.60
2018-10-03T12:30:19.205Z,3.77
2018-10-03T12:32:47.372Z,3.23
2018-10-03T12:35:20.656Z,3.80
2018-10-03T12:37:50.419Z,3.10
2018-10-03T12:40:20.742Z,3.10
2018-10-03T12:42:49.372Z,3.90
2018-10-03T12:45:20.841Z,3.60
2018-10-03T12:47:54.132Z,3.27
2018-10-03T12:50:24.429Z,3.50
2018-10-03T12:52:54.878Z,3.47
2018-10-03T12:55:24.436Z,3.03
2018-10-03T12:57:55.754Z,3.05
2018-10-03T13:00:30.498Z,3.23
2018-10-03T13:03:01.766Z,2.80
2018-10-03T13:05:32.688Z,2.87
2018-10-03T13:08:01.676Z,3.03
2018-10-03T13:10:34.412Z,2.93
2018-10-03T13:13:03.066Z,5.50
2018-10-03T13:15:33.147Z,6.07
2018-10-03T13:18:02.625Z,3.00
2018-10-03T13:20:30.719Z,3.00
2018-10-03T13:23:00.605Z,3.00
2018-10-03T13:25:30.566Z,3.00
2018-10-03T13:27:58.903Z,4.03
2018-10-03T13:30:27.021Z,3.67
2018-10-03T13:32:55.130Z,2.97
2018-10-03T13:35:23.550Z,3.10
2018-10-03T13:37:54.497Z,3.27
2018-10-03T13:40:23.874Z,2.72
2018-10-03T13:42:52.883Z,3.83
2018-10-03T13:45:22.176Z,2.87
2018-10-03T13:47:52.032Z,3.00
2018-10-03T13:50:21.761Z,3.27
2018-10-03T13:52:50.555Z,3.47
2018-10-03T13:55:19.399Z,2.93
2018-10-03T13:57:47.882Z,3.37
2018-10-03T14:00:16.077Z,3.00
2018-10-03T14:02:44.272Z,2.73
2018-10-03T14:05:13.092Z,2.83
2018-10-03T14:07:41.306Z,3.10
2018-10-03T14:10:09.539Z,3.23
2018-10-03T14:12:37.769Z,2.80
2018-10-03T14:15:05.897Z,2.93
2018-10-03T14:17:34.212Z,3.77
2018-10-03T14:20:02.416Z,4.27
2018-10-03T14:22:31.183Z,2.97
2018-10-03T14:24:59.432Z,2.77
2018-10-03T14:27:28.144Z,3.00
2018-10-03T14:29:56.742Z,3.17
2018-10-03T14:32:24.995Z,3.00
2018-10-03T14:34:53.232Z,2.65
2018-10-03T14:37:21.455Z,2.40
2018-10-03T14:39:50.325Z,2.30
2018-10-03T14:42:18.894Z,3.07
2018-10-03T14:44:48.281Z,2.30
2018-10-03T14:47:16.416Z,2.73
2018-10-03T14:49:44.544Z,2.87
2018-10-03T14:52:12.703Z,3.17
2018-10-03T14:54:41.471Z,2.47
2018-10-03T14:57:11.338Z,2.55
2018-10-03T14:59:39.631Z,2.50
2018-10-03T15:02:09.127Z,2.63
2018-10-03T15:04:37.287Z,2.43
2018-10-03T15:07:05.667Z,2.53
2018-10-03T15:09:33.832Z,2.50
2018-10-03T15:12:02.095Z,2.47
2018-10-03T15:14:30.630Z,2.50
2018-10-03T15:16:59.975Z,2.27
2018-10-03T15:19:28.299Z,3.53
2018-10-03T15:21:56.495Z,2.97
2018-10-03T15:24:24.746Z,2.70
2018-10-03T15:26:53.003Z,3.27
2018-10-03T15:29:21.312Z,2.43
2018-10-03T15:31:53.282Z,3.17
2018-10-03T15:34:21.920Z,2.20
2018-10-03T15:36:51.150Z,2.87
2018-10-03T15:39:19.390Z,2.20
2018-10-03T15:41:47.780Z,2.50
2018-10-03T15:44:15.954Z,2.90
2018-10-03T15:46:44.260Z,2.72
2018-10-03T15:49:12.441Z,2.83
2018-10-03T15:51:41.152Z,2.70
2018-10-03T15:54:09.980Z,2.33
2018-10-03T15:56:38.165Z,2.40
2018-10-03T15:59:06.341Z,3.03
2018-10-03T16:01:34.435Z,2.83
2018-10-03T16:04:02.543Z,3.58
2018-10-03T16:06:31.341Z,2.43
2018-10-03T16:09:24.739Z,1.90
2018-10-03T16:11:52.844Z,2.50
2018-10-03T16:14:31.068Z,2.20
2018-10-03T16:17:01.156Z,2.47
2018-10-03T16:19:29.409Z,2.57
2018-10-03T16:21:57.607Z,2.50
2018-10-03T16:24:26.014Z,2.60
2018-10-03T16:26:56.686Z,2.43
2018-10-03T16:29:24.983Z,2.35
2018-10-03T16:31:53.755Z,3.20
2018-10-03T16:34:22.158Z,2.70
2018-10-03T16:36:50.453Z,2.83
2018-10-03T16:39:20.534Z,2.80
2018-10-03T16:41:48.856Z,2.20
2018-10-03T16:44:17.479Z,2.42
2018-10-03T16:46:46.030Z,3.13
2018-10-03T16:49:14.348Z,3.93
2018-10-03T16:51:47.557Z,3.00
2018-10-03T16:54:15.710Z,2.80
2018-10-03T16:56:43.813Z,2.22
2018-10-03T16:59:11.895Z,2.47
2018-10-03T17:01:40.020Z,2.83
2018-10-03T17:04:08.124Z,3.00
